createdAt,value
2019-03-12T00:01:07.150Z,0
2019-03-12T00:06:06.503Z,0
2019-03-12T00:11:07.390Z,0
2019-03-12T00:16:06.663Z,0
2019-03-12T00:21:07.003Z,0
2019-03-12T00:26:07.420Z,0
2019-03-12T00:31:06.514Z,0
2019-03-12T00:36:06.822Z,0
2019-03-12T00:41:06.680Z,0
2019-03-12T00:46:06.603Z,0
2019-03-12T00:51:06.993Z,0
2019-03-12T00:56:07.442Z,0
2019-03-12T01:00:08.826Z,0
2019-03-12T01:05:07.216Z,0
2019-03-12T01:10:06.989Z,0
2019-03-12T01:15:08.753Z,0
2019-03-12T01:20:07.392Z,0
2019-03-12T01:25:06.876Z,0
2019-03-12T01:29:08.343Z,0
2019-03-12T01:34:07.603Z,0
2019-03-12T01:39:08.357Z,0
2019-03-12T01:44:07.702Z,0
2019-03-12T01:49:08.018Z,0
2019-03-12T01:54:07.473Z,0
2019-03-12T01:59:07.915Z,0
2019-03-12T02:04:10.870Z,0
2019-03-12T02:09:07.836Z,0
2019-03-12T02:13:09.419Z,0
2019-03-12T02:19:07.248Z,0
2019-03-12T02:24:06.626Z,0
2019-03-12T02:28:07.477Z,0
2019-03-12T02:33:07.767Z,0
2019-03-12T02:38:07.171Z,0
2019-03-12T02:43:08.128Z,0
2019-03-12T02:48:07.188Z,0
2019-03-12T02:53:07.487Z,0
2019-03-12T02:58:07.993Z,0
2019-03-12T03:02:07.449Z,0
2019-03-12T03:07:07.871Z,0
2019-03-12T03:12:07.619Z,0
2019-03-12T03:17:07.623Z,0
2019-03-12T03:22:08.024Z,0
2019-03-12T03:27:07.395Z,0
2019-03-12T03:32:07.094Z,0
2019-03-12T03:37:07.299Z,0
2019-03-12T03:41:07.685Z,0
2019-03-12T03:42:07.527Z,0
2019-03-12T03:46:06.477Z,0
2019-03-12T03:51:06.900Z,0
2019-03-12T03:56:07.230Z,0
2019-03-12T04:01:07.141Z,0
2019-03-12T04:06:07.044Z,0
2019-03-12T04:11:07.477Z,0
2019-03-12T04:15:09.387Z,0
2019-03-12T04:16:06.729Z,0
2019-03-12T04:20:07.550Z,0
2019-03-12T04:25:06.853Z,0
2019-03-12T04:30:09.076Z,0
2019-03-12T04:35:07.110Z,0
2019-03-12T04:40:07.915Z,0
2019-03-12T04:45:08.562Z,0
2019-03-12T04:49:07.992Z,0
2019-03-12T04:54:08.103Z,0
2019-03-12T04:59:06.780Z,0.83
2019-03-12T05:04:07.618Z,4.17
2019-03-12T05:09:07.510Z,12.5
2019-03-12T05:14:07.044Z,30
2019-03-12T05:19:06.954Z,67.5
2019-03-12T05:24:06.997Z,107.5
2019-03-12T05:29:07.424Z,152.5
2019-03-12T05:34:06.906Z,188.33
2019-03-12T05:39:07.612Z,435
2019-03-12T05:43:08.089Z,557.5
2019-03-12T05:48:07.094Z,771.67
2019-03-12T05:53:06.575Z,1143.33
2019-03-12T05:58:06.933Z,1530
2019-03-12T06:03:06.742Z,1510
2019-03-12T06:08:07.086Z,2177.5
2019-03-12T06:13:07.011Z,3167.5
2019-03-12T06:17:07.623Z,4535.83
2019-03-12T06:18:06.747Z,4535.83
2019-03-12T06:22:07.153Z,3526.67
2019-03-12T06:27:07.588Z,2407.5
2019-03-12T06:32:07.770Z,3072.5
2019-03-12T06:37:07.111Z,3013.33
2019-03-12T06:42:08.735Z,2083.33
2019-03-12T06:47:06.833Z,4830
2019-03-12T06:52:07.133Z,7497.5
2019-03-12T06:57:07.378Z,7529.17
2019-03-12T07:02:06.811Z,5550.83
2019-03-12T07:07:13.152Z,9315.83
2019-03-12T07:11:06.921Z,6220
2019-03-12T07:16:07.749Z,8733.33
2019-03-12T07:21:07.113Z,8872.5
2019-03-12T07:26:07.529Z,10021.67
2019-03-12T07:31:07.717Z,9949.17
2019-03-12T07:36:07.197Z,9837.5
2019-03-12T07:41:07.158Z,12973.33
2019-03-12T07:45:08.801Z,12560
2019-03-12T07:46:06.916Z,12560
2019-03-12T07:50:06.860Z,21040.83
2019-03-12T07:55:07.101Z,12480
2019-03-12T08:00:10.899Z,12970
2019-03-12T08:05:07.391Z,10781.67
2019-03-12T08:10:07.200Z,12657.5
2019-03-12T08:15:22.193Z,20935
2019-03-12T08:20:10.941Z,17647.5
2019-03-12T08:25:07.238Z,12783.33
2019-03-12T08:30:08.910Z,14350
2019-03-12T08:35:06.989Z,16609.17
2019-03-12T08:39:07.840Z,16990
2019-03-12T08:44:07.275Z,20280.83
2019-03-12T08:49:07.413Z,17385.83
2019-03-12T08:54:07.192Z,34705
2019-03-12T08:59:06.507Z,20426.67
2019-03-12T09:04:07.346Z,28647.5
2019-03-12T09:09:08.087Z,13349.17
2019-03-12T09:14:07.427Z,31197.5
2019-03-12T09:18:07.351Z,20076.67
2019-03-12T09:19:06.825Z,20076.67
2019-03-12T09:23:06.835Z,42576.66
2019-03-12T09:28:07.123Z,51817.5
2019-03-12T09:33:07.145Z,23493.33
2019-03-12T09:38:07.432Z,48428.33
2019-03-12T09:43:07.314Z,36456.66
2019-03-12T09:48:07.194Z,27048.33
2019-03-12T09:53:06.695Z,19935
2019-03-12T09:57:07.473Z,47628.33
2019-03-12T09:58:07.418Z,47628.33
2019-03-12T10:02:07.262Z,54612.5
2019-03-12T10:07:07.684Z,54612.5
2019-03-12T10:12:07.560Z,53161.66
2019-03-12T10:17:07.659Z,16864.17
2019-03-12T10:22:07.207Z,9924.17
2019-03-12T10:27:07.710Z,49388.33
2019-03-12T10:32:07.618Z,33828.33
2019-03-12T10:37:16.931Z,16996.67
2019-03-12T10:42:07.759Z,54612.5
2019-03-12T10:46:07.724Z,47020.83
2019-03-12T10:47:06.942Z,47020.83
2019-03-12T10:51:07.577Z,54360.83
2019-03-12T10:56:07.039Z,51774.16
2019-03-12T11:01:07.648Z,44248.33
2019-03-12T11:06:07.167Z,54083.33
2019-03-12T11:11:07.029Z,49944.16
2019-03-12T11:16:08.057Z,42003.33
2019-03-12T11:20:08.146Z,54340.83
2019-03-12T11:21:07.375Z,54340.83
2019-03-12T11:25:07.861Z,24550.83
2019-03-12T11:30:08.936Z,38320
2019-03-12T11:35:07.214Z,44649.16
2019-03-12T11:40:07.013Z,50093.33
2019-03-12T11:45:20.126Z,41991.66
2019-03-12T11:50:06.944Z,39395.83
2019-03-12T11:55:07.380Z,20445
2019-03-12T12:00:08.413Z,21578.33
2019-03-12T12:05:07.613Z,13621.67
2019-03-12T12:09:07.238Z,44802.5
2019-03-12T12:14:06.986Z,18007.5
2019-03-12T12:19:07.703Z,43877.5
2019-03-12T12:24:06.737Z,27321.67
2019-03-12T12:29:07.413Z,15559.17
2019-03-12T12:34:07.579Z,48335
2019-03-12T12:39:06.968Z,43800
2019-03-12T12:43:07.240Z,42326.66
2019-03-12T12:48:07.023Z,16901.67
2019-03-12T12:53:07.614Z,38340
2019-03-12T12:58:07.325Z,39201.66
2019-03-12T13:03:07.158Z,19628.33
2019-03-12T13:08:06.758Z,28136.67
2019-03-12T13:13:07.389Z,32547.5
2019-03-12T13:18:06.778Z,32922.5
2019-03-12T13:23:07.380Z,35628.33
2019-03-12T13:28:07.718Z,21708.33
2019-03-12T13:33:07.034Z,20725.83
2019-03-12T13:37:07.131Z,16424.17
2019-03-12T13:42:06.910Z,17920
2019-03-12T13:47:06.904Z,18716.67
2019-03-12T13:52:07.253Z,20161.67
2019-03-12T13:57:07.109Z,21865
2019-03-12T14:02:06.979Z,17696.67
2019-03-12T14:07:07.275Z,15044.17
2019-03-12T14:12:07.114Z,14630.83
2019-03-12T14:16:07.341Z,13620.83
2019-03-12T14:17:09.168Z,13620.83
2019-03-12T14:21:07.227Z,12427.5
2019-03-12T14:26:06.490Z,11882.5
2019-03-12T14:31:06.647Z,12493.33
2019-03-12T14:36:07.519Z,11505.83
2019-03-12T14:41:07.568Z,11645.83
2019-03-12T14:46:07.133Z,10557.5
2019-03-12T14:51:06.610Z,11358.33
2019-03-12T14:56:07.019Z,13604.17
2019-03-12T15:01:07.107Z,22120.83
2019-03-12T15:05:07.122Z,13461.67
2019-03-12T15:10:07.058Z,11847.5
2019-03-12T15:15:08.634Z,12193.33
2019-03-12T15:20:06.566Z,13760
2019-03-12T15:25:06.941Z,15709.17
2019-03-12T15:30:08.493Z,13221.67
2019-03-12T15:35:07.414Z,9624.17
2019-03-12T15:39:07.575Z,8316.67
2019-03-12T15:44:06.916Z,7407.5
2019-03-12T15:49:07.777Z,6003.33
2019-03-12T15:54:06.902Z,4951.67
2019-03-12T15:59:07.522Z,4595
2019-03-12T16:04:06.697Z,3775
2019-03-12T16:08:07.719Z,3269.17
2019-03-12T16:13:08.649Z,2812.5
2019-03-12T16:18:07.362Z,2350
2019-03-12T16:23:07.001Z,2054.17
2019-03-12T16:28:07.401Z,1733.33
2019-03-12T16:33:07.659Z,1405
2019-03-12T16:38:07.799Z,1117.5
2019-03-12T16:43:07.549Z,901.67
2019-03-12T16:48:07.734Z,696.67
2019-03-12T16:52:07.698Z,484.17
2019-03-12T16:53:07.002Z,484.17
2019-03-12T16:57:07.404Z,313.33
2019-03-12T17:02:06.987Z,198.33
2019-03-12T17:07:06.757Z,129.17
2019-03-12T17:12:07.303Z,86.67
2019-03-12T17:17:07.720Z,53.33
2019-03-12T17:22:06.857Z,25.83
2019-03-12T17:27:07.186Z,10.83
2019-03-12T17:32:07.375Z,4.17
2019-03-12T17:37:07.623Z,1.67
2019-03-12T17:42:07.414Z,0
2019-03-12T17:46:07.188Z,0
2019-03-12T17:51:08.673Z,0
2019-03-12T17:56:07.709Z,0
2019-03-12T18:01:06.596Z,0
2019-03-12T18:06:06.981Z,0
2019-03-12T18:11:07.271Z,0
2019-03-12T18:15:08.541Z,0
2019-03-12T18:20:07.741Z,0
2019-03-12T18:25:09.170Z,0
2019-03-12T18:30:09.311Z,0
2019-03-12T18:35:07.714Z,0
2019-03-12T18:40:07.699Z,0
2019-03-12T18:45:07.974Z,0
2019-03-12T18:49:07.302Z,0
2019-03-12T18:50:06.832Z,0
2019-03-12T18:55:07.285Z,0
2019-03-12T18:59:07.292Z,0
2019-03-12T19:04:07.120Z,0
2019-03-12T19:09:07.993Z,0
2019-03-12T19:14:07.422Z,0
2019-03-12T19:19:06.754Z,0
2019-03-12T19:24:07.083Z,0
2019-03-12T19:29:07.520Z,0
2019-03-12T19:34:06.915Z,0
2019-03-12T19:38:07.313Z,0
2019-03-12T19:43:06.959Z,0
2019-03-12T19:48:06.944Z,0
2019-03-12T19:53:07.471Z,0
2019-03-12T19:58:06.877Z,0
2019-03-12T20:03:15.936Z,0
2019-03-12T20:08:08.432Z,0
2019-03-12T20:13:07.301Z,0
2019-03-12T20:18:07.082Z,0
2019-03-12T20:22:08.133Z,0
2019-03-12T20:23:06.688Z,0
2019-03-12T20:27:07.418Z,0
2019-03-12T20:32:07.397Z,0
2019-03-12T20:37:06.812Z,0
2019-03-12T20:42:07.686Z,0
2019-03-12T20:47:06.735Z,0
2019-03-12T20:52:07.526Z,0
2019-03-12T20:57:07.029Z,0
2019-03-12T21:02:07.165Z,0
2019-03-12T21:07:07.253Z,0
2019-03-12T21:11:07.503Z,0
2019-03-12T21:16:06.970Z,0
2019-03-12T21:21:07.441Z,0
2019-03-12T21:26:07.913Z,0
2019-03-12T21:31:06.817Z,0
2019-03-12T21:36:08.678Z,0
2019-03-12T21:41:07.200Z,0
2019-03-12T21:45:09.350Z,0
2019-03-12T21:46:06.626Z,0
2019-03-12T21:50:07.209Z,0
2019-03-12T21:55:07.806Z,0
2019-03-12T22:00:09.452Z,0
2019-03-12T22:05:07.259Z,0
2019-03-12T22:10:07.036Z,0
2019-03-12T22:15:08.712Z,0
2019-03-12T22:20:07.421Z,0
2019-03-12T22:25:06.874Z,0
2019-03-12T22:30:08.772Z,0
2019-03-12T22:35:06.930Z,0
2019-03-12T22:39:07.454Z,0
2019-03-12T22:44:06.959Z,0
2019-03-12T22:49:07.185Z,0
2019-03-12T22:54:07.630Z,0
2019-03-12T22:59:06.976Z,0
2019-03-12T23:04:07.339Z,0
2019-03-12T23:09:06.902Z,0
2019-03-12T23:14:07.780Z,0
2019-03-12T23:18:07.189Z,0
2019-03-12T23:23:07.610Z,0
2019-03-12T23:28:07.051Z,0
2019-03-12T23:33:07.212Z,0
2019-03-12T23:38:07.715Z,0
2019-03-12T23:43:07.361Z,0
2019-03-12T23:48:07.587Z,0
2019-03-12T23:53:06.974Z,0
2019-03-12T23:58:07.338Z,0
